Time;durP1;ratioP1;P1;durP2;ratioP2;P2;SDS_P1;SDS_P2;PMS_P1;PMS_P2;Temp;Humidity;BMP_temperature;BMP_pressure;BME280_temperature;BME280_humidity;BME280_pressure;Samples;Min_cycle;Max_cycle;Signal;HPM_P1;HPM_P2
2021/06/02 00:00:43;;;;;;;10.30;3.97;;;17.50;99.90;;;;;;5043883;28;20187;-76
2021/06/02 00:03:15;;;;;;;11.03;4.10;;;17.40;99.90;;;;;;5062674;28;20194;-76
2021/06/02 00:05:47;;;;;;;13.83;3.90;;;17.50;99.90;;;;;;5045687;28;20289;-75
2021/06/02 00:08:16;;;;;;;10.87;3.87;;;17.50;99.90;;;;;;5046053;28;20194;-76
2021/06/02 00:10:43;;;;;;;14.80;4.10;;;17.20;99.90;;;;;;5042924;28;20683;-76
2021/06/02 00:13:10;;;;;;;9.07;3.77;;;17.40;99.90;;;;;;5044313;28;20306;-76
2021/06/02 00:15:37;;;;;;;11.33;4.10;;;17.30;99.90;;;;;;5061037;28;20299;-76
2021/06/02 00:18:04;;;;;;;10.03;3.73;;;17.20;99.90;;;;;;5041170;28;20263;-76
2021/06/02 00:20:31;;;;;;;15.07;4.43;;;17.20;99.90;;;;;;5044294;28;20524;-77
2021/06/02 00:22:58;;;;;;;13.70;4.13;;;17.10;99.90;;;;;;5055519;28;20520;-75
2021/06/02 00:25:24;;;;;;;8.60;3.50;;;17.10;99.90;;;;;;5044160;28;20195;-77
2021/06/02 00:27:55;;;;;;;11.07;3.20;;;17.10;99.90;;;;;;5060309;28;20191;-77
2021/06/02 00:30:22;;;;;;;22.17;5.17;;;17.20;99.90;;;;;;5063326;28;20299;-78
2021/06/02 00:32:49;;;;;;;12.07;3.83;;;17.40;99.90;;;;;;5042747;28;20191;-76
2021/06/02 00:35:18;;;;;;;13.77;4.40;;;17.40;99.90;;;;;;5059738;28;20224;-75
2021/06/02 00:37:47;;;;;;;12.87;3.70;;;17.20;99.90;;;;;;5059663;28;20244;-77
2021/06/02 00:40:46;;;;;;;12.00;4.00;;;17.20;99.90;;;;;;5065829;28;20539;-78
2021/06/02 00:43:14;;;;;;;11.70;4.00;;;17.30;99.90;;;;;;5060045;28;20277;-77
2021/06/02 00:45:45;;;;;;;10.00;3.80;;;17.10;99.90;;;;;;5060953;28;20273;-76
2021/06/02 00:48:19;;;;;;;12.80;4.33;;;17.10;99.90;;;;;;5060091;28;20214;-77
2021/06/02 00:50:49;;;;;;;14.60;3.83;;;17.20;99.90;;;;;;5059846;28;20306;-77
2021/06/02 00:53:18;;;;;;;11.63;4.07;;;17.50;99.90;;;;;;5063464;28;20780;-77
2021/06/02 00:55:45;;;;;;;10.83;3.80;;;17.30;99.90;;;;;;5062860;28;20190;-77
2021/06/02 00:58:30;;;;;;;15.03;4.13;;;17.00;99.90;;;;;;5058767;28;20183;-77
2021/06/02 01:00:59;;;;;;;16.03;4.30;;;16.90;99.90;;;;;;5059988;28;20198;-77
2021/06/02 01:03:29;;;;;;;10.70;3.57;;;17.00;99.90;;;;;;5061925;28;20273;-78
2021/06/02 01:05:56;;;;;;;15.27;4.00;;;17.00;99.90;;;;;;5059223;28;20217;-77
2021/06/02 01:08:24;;;;;;;14.47;3.40;;;16.90;99.90;;;;;;5073786;28;20186;-78
2021/06/02 01:10:52;;;;;;;6.73;3.33;;;16.90;99.90;;;;;;5062435;28;20194;-77
2021/06/02 01:13:22;;;;;;;9.23;3.40;;;16.80;99.90;;;;;;5060830;28;20269;-78
2021/06/02 01:15:51;;;;;;;13.63;4.30;;;16.70;99.90;;;;;;5040796;28;20186;-78
2021/06/02 01:18:19;;;;;;;13.37;3.77;;;16.70;99.90;;;;;;5055635;28;20646;-78
2021/06/02 01:20:48;;;;;;;14.67;3.70;;;16.80;99.90;;;;;;5060761;28;20203;-78
2021/06/02 01:23:15;;;;;;;11.97;3.63;;;17.00;99.90;;;;;;5067776;28;20285;-78
2021/06/02 01:25:44;;;;;;;12.60;3.93;;;17.00;99.90;;;;;;5065079;28;20191;-78
2021/06/02 01:28:11;;;;;;;12.97;3.60;;;16.80;99.90;;;;;;5044958;28;20949;-78
2021/06/02 01:30:38;;;;;;;11.80;3.87;;;17.00;99.90;;;;;;5066324;28;20270;-78
2021/06/02 01:33:15;;;;;;;13.03;3.83;;;17.10;99.90;;;;;;5062624;28;20189;-78
2021/06/02 01:35:56;;;;;;;13.87;3.93;;;17.30;99.90;;;;;;5063322;28;20236;-78
2021/06/02 01:39:31;;;;;;;11.90;3.43;;;17.40;99.90;;;;;;5065631;28;20183;-79
2021/06/02 01:42:25;;;;;;;10.40;3.50;;;17.10;99.90;;;;;;5061321;28;20722;-79
2021/06/02 01:45:17;;;;;;;13.87;3.70;;;16.90;99.90;;;;;;5047269;28;20587;-79
2021/06/02 01:48:23;;;;;;;13.60;3.80;;;16.70;99.90;;;;;;5086267;28;20282;-75
2021/06/02 01:51:27;;;;;;;12.83;3.93;;;16.60;99.90;;;;;;5064833;28;21042;-76
2021/06/02 01:54:11;;;;;;;10.17;3.20;;;16.70;99.90;;;;;;5047019;28;20586;-75
2021/06/02 01:57:23;;;;;;;15.20;4.23;;;16.80;99.90;;;;;;5062113;28;20194;-75
2021/06/02 02:00:15;;;;;;;13.03;3.60;;;16.80;99.90;;;;;;5064396;28;20262;-77
2021/06/02 02:03:21;;;;;;;15.77;4.30;;;16.90;99.90;;;;;;5062968;28;20598;-74
2021/06/02 02:06:26;;;;;;;13.27;3.57;;;17.00;99.90;;;;;;5060247;28;20207;-75
2021/06/02 02:09:30;;;;;;;17.63;3.93;;;17.20;99.90;;;;;;5046923;28;20194;-75
2021/06/02 02:12:43;;;;;;;15.07;3.73;;;17.40;99.90;;;;;;5064045;28;20221;-76
2021/06/02 02:15:29;;;;;;;12.07;3.83;;;17.50;99.90;;;;;;5063380;28;20328;-77
2021/06/02 02:18:30;;;;;;;17.83;3.60;;;17.50;99.90;;;;;;5061765;28;20188;-76
2021/06/02 02:21:16;;;;;;;21.40;4.13;;;17.60;99.90;;;;;;5065030;28;20187;-76
2021/06/02 02:24:08;;;;;;;15.53;3.80;;;17.60;99.90;;;;;;5061075;28;20191;-75
2021/06/02 02:27:33;;;;;;;18.43;3.87;;;17.70;99.90;;;;;;5063108;28;20209;-76
2021/06/02 02:30:49;;;;;;;12.07;3.50;;;17.60;99.90;;;;;;5047262;28;20200;-75
2021/06/02 02:33:49;;;;;;;13.40;3.10;;;17.40;99.90;;;;;;5065262;28;20282;-75
2021/06/02 02:36:31;;;;;;;14.37;3.43;;;17.20;99.90;;;;;;5063803;28;20226;-75
2021/06/02 02:39:48;;;;;;;14.70;4.00;;;17.30;99.90;;;;;;5063028;28;20273;-75
2021/06/02 02:42:53;;;;;;;13.83;3.60;;;17.20;99.90;;;;;;5063232;28;20531;-75
2021/06/02 02:45:29;;;;;;;17.43;3.63;;;17.30;99.90;;;;;;5037855;28;20190;-75
2021/06/02 02:48:35;;;;;;;13.33;3.37;;;17.20;99.90;;;;;;5087395;28;20193;-75
2021/06/02 02:51:43;;;;;;;12.40;3.33;;;17.30;99.90;;;;;;5066599;28;20199;-75
2021/06/02 02:54:31;;;;;;;12.57;3.50;;;17.20;99.90;;;;;;5062929;28;20360;-73
2021/06/02 02:57:24;;;;;;;13.20;2.93;;;16.90;99.90;;;;;;5057863;28;20189;-73
2021/06/02 03:00:08;;;;;;;16.33;3.17;;;16.80;99.90;;;;;;5065723;28;20187;-73
2021/06/02 03:03:02;;;;;;;13.40;3.70;;;17.00;99.90;;;;;;5063681;28;20190;-73
2021/06/02 03:05:39;;;;;;;13.07;3.60;;;17.10;99.90;;;;;;5066050;28;20333;-72
2021/06/02 03:08:39;;;;;;;12.57;3.20;;;17.00;99.90;;;;;;5065779;28;20191;-73
2021/06/02 03:11:41;;;;;;;16.20;3.97;;;17.20;99.90;;;;;;5059594;28;20234;-73
2021/06/02 03:14:16;;;;;;;19.10;3.80;;;17.30;99.90;;;;;;5054395;28;20198;-72
2021/06/02 03:16:56;;;;;;;18.70;4.30;;;17.20;99.90;;;;;;5064051;28;20182;-72
2021/06/02 03:19:40;;;;;;;13.03;3.73;;;17.20;99.90;;;;;;5060533;28;20264;-74
2021/06/02 03:22:22;;;;;;;19.50;3.53;;;17.30;99.90;;;;;;5042602;28;20196;-74
2021/06/02 03:25:18;;;;;;;14.20;3.50;;;17.10;99.90;;;;;;5037670;28;20216;-73
2021/06/02 03:28:18;;;;;;;21.93;4.03;;;17.10;99.90;;;;;;5061712;28;20199;-74
2021/06/02 03:31:01;;;;;;;19.60;3.80;;;17.30;99.90;;;;;;5047540;28;20267;-74
2021/06/02 03:33:43;;;;;;;10.33;3.57;;;17.40;99.90;;;;;;5063055;28;20225;-74
2021/06/02 03:36:54;;;;;;;11.53;3.30;;;17.20;99.90;;;;;;5065951;28;20233;-73
2021/06/02 03:39:32;;;;;;;13.67;3.60;;;17.00;99.90;;;;;;5043039;28;20540;-76
2021/06/02 03:42:19;;;;;;;9.30;3.23;;;17.00;99.90;;;;;;5039767;28;20275;-77
2021/06/02 03:45:24;;;;;;;10.33;3.10;;;17.10;99.90;;;;;;5042496;28;20199;-76
2021/06/02 03:48:29;;;;;;;10.80;3.00;;;17.10;99.90;;;;;;5056211;28;20607;-76
2021/06/02 03:51:01;;;;;;;15.17;3.50;;;17.10;99.90;;;;;;5061786;28;20211;-76
2021/06/02 03:53:36;;;;;;;9.53;3.00;;;17.00;99.90;;;;;;5062212;28;20187;-77
2021/06/02 03:56:42;;;;;;;15.53;3.13;;;17.00;99.90;;;;;;5061774;28;20221;-75
2021/06/02 03:59:35;;;;;;;9.30;3.13;;;17.00;99.90;;;;;;5061712;28;20195;-73
2021/06/02 04:02:50;;;;;;;18.87;4.07;;;17.10;99.90;;;;;;5057347;28;20187;-74
2021/06/02 04:06:19;;;;;;;17.97;3.57;;;17.30;99.90;;;;;;5061239;28;20339;-75
2021/06/02 04:09:04;;;;;;;16.07;3.43;;;17.50;99.90;;;;;;5048328;28;20551;-74
2021/06/02 04:11:54;;;;;;;8.47;3.17;;;17.60;99.90;;;;;;5068890;28;20238;-74
2021/06/02 04:14:36;;;;;;;13.23;3.27;;;17.80;99.90;;;;;;5059401;28;20607;-76
2021/06/02 04:17:03;;;;;;;9.60;2.97;;;17.80;99.90;;;;;;5056223;28;20780;-78
2021/06/02 04:19:32;;;;;;;13.77;3.33;;;18.00;99.90;;;;;;5062932;28;20196;-76
2021/06/02 04:22:07;;;;;;;9.93;2.80;;;18.00;99.90;;;;;;5060350;28;20278;-76
2021/06/02 04:24:37;;;;;;;11.93;3.30;;;18.10;99.90;;;;;;5042157;28;20285;-76
2021/06/02 04:27:05;;;;;;;11.40;2.80;;;18.00;99.90;;;;;;5045202;28;20213;-76
2021/06/02 04:29:32;;;;;;;14.23;3.50;;;18.20;99.90;;;;;;5061116;28;20186;-76
2021/06/02 04:32:08;;;;;;;9.30;3.00;;;18.30;99.90;;;;;;5059724;28;20297;-76
2021/06/02 04:34:36;;;;;;;9.07;2.97;;;18.50;99.90;;;;;;5059870;28;20206;-75
2021/06/02 04:37:06;;;;;;;11.10;3.07;;;18.50;99.90;;;;;;5058955;28;20258;-77
2021/06/02 04:39:39;;;;;;;15.00;3.13;;;18.50;99.90;;;;;;5063672;28;20194;-77
2021/06/02 04:42:09;;;;;;;13.33;3.83;;;18.50;99.90;;;;;;5062452;28;20663;-75
2021/06/02 04:44:39;;;;;;;14.77;3.33;;;18.50;99.90;;;;;;5061181;28;20209;-74
2021/06/02 04:47:07;;;;;;;16.80;3.57;;;18.50;99.90;;;;;;5064621;28;20268;-76
2021/06/02 04:49:52;;;;;;;13.37;3.00;;;18.50;99.90;;;;;;5062589;28;21012;-75
2021/06/02 04:53:11;;;;;;;13.43;3.30;;;18.60;99.90;;;;;;5063398;28;20203;-76
2021/06/02 04:55:49;;;;;;;9.57;3.27;;;18.60;99.90;;;;;;5063153;28;20236;-78
2021/06/02 04:58:28;;;;;;;10.13;3.10;;;18.70;99.90;;;;;;5052518;28;20198;-77
2021/06/02 05:01:43;;;;;;;16.07;3.90;;;18.90;99.90;;;;;;5059164;28;20182;-77
2021/06/02 05:04:47;;;;;;;17.17;3.90;;;18.90;99.90;;;;;;5063253;28;20195;-77
2021/06/02 05:07:28;;;;;;;10.87;3.57;;;18.90;99.90;;;;;;5062048;28;20605;-77
2021/06/02 05:10:31;;;;;;;11.47;3.40;;;19.10;99.90;;;;;;5042072;28;20190;-76
2021/06/02 05:13:41;;;;;;;10.90;3.37;;;19.10;99.90;;;;;;5059675;28;20197;-75
2021/06/02 05:16:12;;;;;;;17.67;3.73;;;19.20;99.90;;;;;;5068390;28;20786;-77
2021/06/02 05:23:00;;;;;;;13.77;4.10;;;19.60;99.90;;;;;;5087375;28;20191;-77
2021/06/02 05:26:19;;;;;;;14.50;3.53;;;19.60;99.90;;;;;;5045429;28;20213;-76
2021/06/02 05:29:25;;;;;;;12.67;3.40;;;19.90;99.90;;;;;;5048860;28;20189;-76
2021/06/02 05:32:13;;;;;;;23.13;3.97;;;19.70;99.90;;;;;;5041391;28;20210;-76
2021/06/02 05:35:23;;;;;;;9.53;3.70;;;19.70;99.90;;;;;;5042588;28;20566;-77
2021/06/02 05:38:29;;;;;;;10.60;3.40;;;19.50;99.90;;;;;;5059859;28;20199;-77
2021/06/02 05:41:27;;;;;;;14.83;4.00;;;19.60;99.90;;;;;;5059622;28;20190;-76
2021/06/02 05:44:45;;;;;;;14.37;4.07;;;19.70;99.90;;;;;;5062009;28;20282;-74
2021/06/02 05:47:52;;;;;;;10.10;3.70;;;19.80;99.90;;;;;;5075387;28;20273;-75
2021/06/02 05:51:43;;;;;;;12.67;3.60;;;19.90;99.90;;;;;;5061268;28;20301;-75
2021/06/02 05:54:21;;;;;;;8.77;3.30;;;20.00;99.90;;;;;;5001119;28;20202;-75
2021/06/02 05:57:35;;;;;;;10.77;3.87;;;20.10;99.90;;;;;;5058318;28;20198;-77
2021/06/02 06:00:11;;;;;;;10.10;3.70;;;20.10;99.90;;;;;;5057967;28;20800;-77
2021/06/02 06:03:38;;;;;;;12.57;4.37;;;20.30;99.90;;;;;;5059872;28;20224;-77
2021/06/02 06:06:13;;;;;;;10.13;4.13;;;20.40;99.90;;;;;;5033898;28;20215;-77
2021/06/02 06:09:24;;;;;;;9.03;3.90;;;20.50;99.90;;;;;;5064562;28;20678;-78
2021/06/02 06:12:14;;;;;;;10.53;4.00;;;20.50;99.90;;;;;;5076658;28;20222;-76
2021/06/02 06:15:24;;;;;;;10.53;3.90;;;20.70;99.90;;;;;;5064773;28;21116;-77
2021/06/02 06:18:38;;;;;;;10.43;3.53;;;20.70;99.90;;;;;;5049998;28;20245;-77
2021/06/02 06:22:00;;;;;;;13.20;4.23;;;20.70;99.90;;;;;;5058888;28;20190;-77
2021/06/02 06:24:48;;;;;;;10.40;3.50;;;21.00;99.90;;;;;;5063008;28;20519;-76
2021/06/02 06:27:25;;;;;;;13.10;3.93;;;21.20;99.90;;;;;;5063449;28;20263;-74
2021/06/02 06:30:00;;;;;;;15.40;4.27;;;21.30;99.90;;;;;;5066825;28;20259;-74
2021/06/02 06:32:31;;;;;;;11.43;4.00;;;21.40;99.90;;;;;;5092625;28;20539;-75
2021/06/02 06:35:01;;;;;;;11.40;3.77;;;21.30;99.90;;;;;;5062873;28;20191;-74
2021/06/02 06:37:35;;;;;;;16.27;4.00;;;21.40;99.90;;;;;;5064440;28;20593;-74
2021/06/02 06:40:13;;;;;;;13.27;4.30;;;21.70;99.90;;;;;;5061320;28;20190;-75
2021/06/02 06:42:44;;;;;;;11.47;4.10;;;21.80;99.90;;;;;;5055265;28;20241;-74
2021/06/02 06:45:28;;;;;;;9.80;4.00;;;21.90;99.90;;;;;;5063614;28;20200;-74
2021/06/02 06:47:57;;;;;;;12.83;3.90;;;21.80;99.90;;;;;;5063756;28;20262;-74
2021/06/02 06:50:23;;;;;;;8.43;3.73;;;21.80;99.90;;;;;;5061083;28;20218;-74
2021/06/02 06:53:04;;;;;;;13.83;4.20;;;21.80;99.90;;;;;;5047829;28;20586;-74
2021/06/02 06:55:32;;;;;;;12.83;4.17;;;21.80;99.90;;;;;;5047906;28;20559;-75
2021/06/02 06:58:00;;;;;;;11.87;3.63;;;21.70;99.90;;;;;;5058710;28;20264;-75
2021/06/02 07:00:28;;;;;;;18.50;5.10;;;21.70;99.90;;;;;;5058733;28;20293;-74
2021/06/02 07:02:55;;;;;;;13.87;4.03;;;21.60;99.90;;;;;;5061685;28;20224;-72
2021/06/02 07:05:26;;;;;;;14.23;4.27;;;21.60;99.90;;;;;;5048062;28;20218;-72
2021/06/02 07:07:53;;;;;;;11.37;3.80;;;21.50;99.90;;;;;;5074561;28;20187;-72
2021/06/02 07:10:22;;;;;;;19.50;4.93;;;21.50;99.90;;;;;;5058455;28;20215;-72
2021/06/02 07:12:50;;;;;;;19.40;4.03;;;21.40;99.90;;;;;;5049167;28;20197;-76
2021/06/02 07:15:17;;;;;;;16.00;4.20;;;21.40;99.90;;;;;;5044483;28;20190;-73
2021/06/02 07:17:47;;;;;;;15.57;4.90;;;21.50;99.90;;;;;;5049445;28;20605;-73
2021/06/02 07:20:22;;;;;;;10.77;3.83;;;21.50;99.90;;;;;;5046550;28;20198;-73
2021/06/02 07:22:51;;;;;;;13.87;4.27;;;21.50;99.90;;;;;;5062605;28;20686;-74
2021/06/02 07:25:27;;;;;;;11.03;3.90;;;21.80;99.90;;;;;;5044747;28;20199;-73
2021/06/02 07:27:57;;;;;;;13.53;4.23;;;21.90;99.90;;;;;;5060591;28;20256;-73
2021/06/02 07:30:26;;;;;;;19.63;4.03;;;21.80;99.90;;;;;;5065380;28;20211;-73
2021/06/02 07:32:54;;;;;;;11.43;4.10;;;21.70;99.90;;;;;;5058076;28;20195;-73
2021/06/02 07:35:21;;;;;;;13.77;3.63;;;21.90;99.90;;;;;;5062441;28;20306;-75
2021/06/02 07:37:48;;;;;;;12.97;4.10;;;22.20;99.90;;;;;;5062177;28;20485;-75
2021/06/02 07:40:15;;;;;;;13.17;3.63;;;22.20;99.90;;;;;;5063932;28;20209;-74
2021/06/02 07:42:41;;;;;;;18.40;3.80;;;22.10;99.90;;;;;;5065473;28;20539;-75
2021/06/02 07:45:08;;;;;;;10.43;3.93;;;22.00;99.90;;;;;;5046674;28;20187;-73
2021/06/02 07:47:35;;;;;;;14.07;4.13;;;22.00;99.90;;;;;;5039781;28;20232;-72
2021/06/02 07:50:01;;;;;;;15.97;4.60;;;21.90;99.90;;;;;;5053780;28;20282;-73
2021/06/02 07:52:27;;;;;;;15.47;3.67;;;21.80;99.90;;;;;;5040997;28;20225;-73
2021/06/02 07:54:55;;;;;;;11.37;3.47;;;22.00;99.90;;;;;;5045371;28;20217;-73
2021/06/02 07:57:21;;;;;;;11.83;3.63;;;22.30;99.90;;;;;;5058708;28;20201;-72
2021/06/02 07:59:48;;;;;;;15.13;3.93;;;22.60;99.90;;;;;;5055541;28;20192;-73
2021/06/02 08:02:14;;;;;;;15.60;4.40;;;22.40;99.90;;;;;;5047348;28;20244;-73
2021/06/02 08:04:42;;;;;;;15.47;4.67;;;22.70;99.90;;;;;;5061203;28;20206;-73
2021/06/02 08:07:09;;;;;;;11.30;4.00;;;22.60;99.90;;;;;;5057110;28;20899;-73
2021/06/02 08:09:36;;;;;;;12.23;4.27;;;22.80;99.90;;;;;;5061936;28;20195;-72
2021/06/02 08:12:06;;;;;;;15.13;4.53;;;22.80;99.90;;;;;;5048173;28;20733;-75
2021/06/02 08:14:33;;;;;;;14.50;4.57;;;22.70;99.90;;;;;;5073897;28;20187;-74
2021/06/02 08:16:59;;;;;;;12.17;4.20;;;22.90;99.90;;;;;;5049769;28;20184;-77
2021/06/02 08:19:26;;;;;;;12.93;4.27;;;22.70;99.90;;;;;;5054697;28;20694;-75
2021/06/02 08:21:52;;;;;;;18.60;4.30;;;22.60;99.90;;;;;;5058112;28;20198;-76
2021/06/02 08:24:18;;;;;;;12.03;4.37;;;22.70;99.90;;;;;;5056564;28;20659;-70
2021/06/02 08:26:46;;;;;;;12.23;4.10;;;23.00;99.90;;;;;;5059552;28;20675;-73
2021/06/02 08:29:33;;;;;;;11.77;4.33;;;23.10;99.90;;;;;;5048525;28;20207;-74
2021/06/02 08:32:12;;;;;;;23.03;4.90;;;23.10;99.90;;;;;;5053915;28;21172;-73
2021/06/02 08:35:09;;;;;;;16.17;4.90;;;23.30;99.90;;;;;;5054182;28;20194;-73
2021/06/02 08:37:47;;;;;;;10.80;4.40;;;23.50;99.90;;;;;;5052495;28;20203;-73
2021/06/02 08:40:18;;;;;;;13.40;4.30;;;23.40;99.90;;;;;;5052899;28;20557;-74
2021/06/02 08:42:47;;;;;;;12.33;4.67;;;23.20;99.90;;;;;;5040631;28;20520;-73
2021/06/02 08:45:17;;;;;;;12.00;4.37;;;23.50;99.90;;;;;;5038376;28;20193;-73
2021/06/02 08:47:48;;;;;;;12.87;4.30;;;23.60;99.90;;;;;;5057641;28;20612;-73
2021/06/02 08:50:21;;;;;;;13.13;4.23;;;23.40;99.90;;;;;;5058286;28;20194;-73
2021/06/02 08:52:50;;;;;;;19.57;4.53;;;23.50;99.90;;;;;;5051643;28;20187;-73
2021/06/02 08:55:21;;;;;;;13.43;3.97;;;23.60;99.90;;;;;;5060864;28;20256;-74
2021/06/02 08:57:52;;;;;;;12.77;3.70;;;24.00;99.90;;;;;;5053165;28;20215;-73
2021/06/02 09:00:22;;;;;;;14.85;3.90;;;24.10;99.90;;;;;;5053772;28;20193;-74
2021/06/02 09:02:54;;;;;;;14.70;3.87;;;24.00;99.90;;;;;;5045935;28;20192;-74
2021/06/02 09:05:23;;;;;;;10.63;3.60;;;24.10;99.90;;;;;;5057416;28;20218;-73
2021/06/02 09:07:55;;;;;;;10.17;4.07;;;24.10;99.90;;;;;;5059042;28;20190;-73
2021/06/02 09:10:25;;;;;;;11.48;3.30;;;24.20;99.90;;;;;;5063215;28;20345;-74
2021/06/02 09:13:02;;;;;;;13.90;4.18;;;24.30;99.90;;;;;;5057826;28;20547;-73
2021/06/02 09:15:36;;;;;;;15.80;4.53;;;24.40;99.90;;;;;;5061662;28;20339;-73
2021/06/02 09:18:05;;;;;;;13.15;4.20;;;24.40;99.90;;;;;;5039815;28;20233;-72
2021/06/02 09:20:44;;;;;;;12.83;4.23;;;24.30;99.90;;;;;;5056968;28;20956;-75
2021/06/02 09:23:38;;;;;;;11.27;4.00;;;24.30;99.90;;;;;;5059551;28;20926;-73
2021/06/02 09:26:11;;;;;;;14.50;3.70;;;24.50;99.90;;;;;;5039605;28;20195;-74
2021/06/02 09:29:00;;;;;;;15.13;4.10;;;24.80;99.90;;;;;;5059323;28;20244;-73
2021/06/02 09:31:30;;;;;;;18.85;4.13;;;24.80;99.90;;;;;;5072678;28;20662;-72
2021/06/02 09:34:06;;;;;;;9.23;3.25;;;24.80;99.90;;;;;;5043190;28;20761;-73
2021/06/02 09:36:40;;;;;;;15.37;4.10;;;24.40;99.90;;;;;;5057594;28;20190;-72
2021/06/02 09:39:11;;;;;;;9.80;3.50;;;24.50;99.90;;;;;;5057509;28;20634;-73
2021/06/02 09:41:41;;;;;;;8.15;3.30;;;24.70;99.90;;;;;;5082120;28;20635;-74
2021/06/02 09:44:35;;;;;;;9.27;3.23;;;24.80;99.90;;;;;;5059383;28;20198;-73
2021/06/02 09:47:10;;;;;;;8.23;3.10;;;24.90;99.90;;;;;;5057147;28;20206;-72
2021/06/02 09:49:56;;;;;;;5.97;2.90;;;24.90;99.90;;;;;;5062240;28;20190;-73
2021/06/02 09:52:51;;;;;;;8.98;3.10;;;25.10;99.90;;;;;;5078687;28;20202;-74
2021/06/02 09:55:27;;;;;;;8.63;3.10;;;25.00;99.90;;;;;;5044696;28;20198;-73
2021/06/02 09:58:07;;;;;;;7.93;2.45;;;25.10;99.90;;;;;;5061750;28;20268;-73
2021/06/02 10:00:37;;;;;;;6.60;2.83;;;25.30;99.90;;;;;;5043831;28;20198;-74
2021/06/02 10:03:18;;;;;;;8.95;3.25;;;25.60;99.90;;;;;;5043575;28;20273;-73
2021/06/02 10:05:47;;;;;;;6.90;2.78;;;25.50;99.90;;;;;;5042086;28;20298;-73
2021/06/02 10:08:33;;;;;;;5.88;2.80;;;25.40;99.90;;;;;;5059638;28;20206;-73
2021/06/02 10:11:17;;;;;;;8.02;2.70;;;25.50;99.90;;;;;;5058107;28;20218;-73
2021/06/02 10:13:43;;;;;;;5.30;2.45;;;25.60;99.90;;;;;;5064440;28;20202;-72
2021/06/02 10:16:10;;;;;;;7.35;2.78;;;25.60;99.90;;;;;;5063413;28;20190;-72
2021/06/02 10:18:39;;;;;;;5.40;2.13;;;25.70;99.90;;;;;;5061541;28;20179;-72
2021/06/02 10:21:10;;;;;;;9.45;2.25;;;25.60;99.90;;;;;;5056263;28;20229;-72
2021/06/02 10:23:40;;;;;;;8.32;2.45;;;25.70;99.90;;;;;;5059203;28;20195;-71
2021/06/02 10:26:15;;;;;;;6.70;2.08;;;25.60;99.90;;;;;;5061877;28;20202;-71
2021/06/02 10:28:45;;;;;;;7.50;2.28;;;25.40;99.90;;;;;;5056100;28;20618;-73
2021/06/02 10:31:15;;;;;;;7.60;2.00;;;25.40;99.90;;;;;;5061238;28;20637;-70
2021/06/02 10:33:42;;;;;;;5.13;2.17;;;25.40;99.90;;;;;;5057118;28;20265;-72
2021/06/02 10:36:10;;;;;;;6.45;2.28;;;25.30;99.90;;;;;;5057866;28;21011;-73
2021/06/02 10:38:45;;;;;;;5.68;1.83;;;25.30;99.90;;;;;;5045401;28;20560;-73
2021/06/02 10:41:22;;;;;;;5.15;1.70;;;25.50;99.90;;;;;;5056543;28;20199;-73
2021/06/02 10:43:58;;;;;;;9.93;1.83;;;25.60;99.90;;;;;;5060903;28;20240;-72
2021/06/02 10:46:27;;;;;;;6.45;2.00;;;25.50;99.40;;;;;;5044760;28;20272;-71
2021/06/02 10:48:56;;;;;;;2.40;1.35;;;25.40;99.90;;;;;;5062301;28;20199;-73
2021/06/02 10:51:43;;;;;;;3.78;1.25;;;25.60;96.70;;;;;;5059379;28;20276;-74
2021/06/02 10:54:29;;;;;;;4.90;1.65;;;25.50;94.60;;;;;;5062163;28;20187;-72
2021/06/02 10:56:58;;;;;;;8.98;1.90;;;25.50;99.40;;;;;;5061698;28;20269;-71
2021/06/02 10:59:39;;;;;;;5.28;1.70;;;25.40;95.80;;;;;;5072057;28;20594;-73
2021/06/02 11:02:14;;;;;;;4.05;1.75;;;25.40;97.50;;;;;;5060661;28;20193;-73
2021/06/02 11:04:56;;;;;;;5.25;1.88;;;25.30;98.30;;;;;;5046172;28;20899;-73
2021/06/02 11:07:25;;;;;;;5.88;2.08;;;25.50;98.40;;;;;;5044416;28;20190;-72
2021/06/02 11:10:01;;;;;;;5.53;1.67;;;25.50;99.50;;;;;;5040175;28;20183;-72
2021/06/02 11:12:48;;;;;;;6.72;2.08;;;25.40;99.90;;;;;;5060349;28;20268;-71
2021/06/02 11:15:35;;;;;;;5.63;1.77;;;25.50;98.70;;;;;;5055137;28;20508;-71
2021/06/02 11:18:11;;;;;;;7.43;1.67;;;25.50;98.40;;;;;;5041006;28;20187;-72
2021/06/02 11:20:52;;;;;;;6.97;2.15;;;25.50;99.90;;;;;;5063725;28;20269;-72
2021/06/02 11:23:31;;;;;;;8.52;2.15;;;25.20;99.90;;;;;;5059803;28;20203;-74
2021/06/02 11:26:26;;;;;;;3.53;2.10;;;25.30;99.90;;;;;;5042423;28;20206;-74
2021/06/02 11:28:55;;;;;;;3.40;1.60;;;25.50;99.90;;;;;;5053447;28;20213;-73
2021/06/02 11:31:30;;;;;;;4.18;1.90;;;25.50;98.10;;;;;;5054634;28;20222;-73
2021/06/02 11:34:28;;;;;;;7.25;2.17;;;25.40;99.90;;;;;;5036013;28;20687;-73
2021/06/02 11:37:06;;;;;;;7.47;2.50;;;25.40;99.60;;;;;;5042913;28;20895;-72
2021/06/02 11:39:37;;;;;;;4.55;2.33;;;25.30;99.90;;;;;;5055685;28;20683;-72
2021/06/02 11:42:06;;;;;;;6.63;2.05;;;25.10;99.80;;;;;;5056678;28;20188;-73
2021/06/02 11:44:36;;;;;;;5.43;2.20;;;25.30;99.90;;;;;;5054173;28;20186;-73
2021/06/02 11:47:05;;;;;;;4.60;1.88;;;25.30;99.90;;;;;;5040811;28;20551;-73
2021/06/02 11:49:34;;;;;;;7.45;1.90;;;25.30;99.40;;;;;;5060095;28;21089;-74
2021/06/02 11:52:13;;;;;;;8.80;2.10;;;25.30;99.90;;;;;;5059830;28;20215;-73
2021/06/02 11:55:01;;;;;;;6.90;1.55;;;25.00;99.90;;;;;;5044317;28;20208;-72
2021/06/02 11:57:37;;;;;;;6.40;1.73;;;25.30;95.70;;;;;;5041640;28;20186;-72
2021/06/02 12:00:09;;;;;;;6.28;2.03;;;25.50;95.70;;;;;;5041910;28;20189;-72
2021/06/02 12:02:37;;;;;;;3.50;1.60;;;25.50;99.10;;;;;;5059994;28;20606;-71
2021/06/02 12:05:31;;;;;;;6.90;1.55;;;25.50;97.30;;;;;;5055392;28;20218;-73
2021/06/02 12:08:07;;;;;;;5.53;2.20;;;25.50;96.00;;;;;;5059240;28;20183;-72
2021/06/02 12:10:49;;;;;;;6.90;2.20;;;25.50;96.60;;;;;;5045474;28;20891;-72
2021/06/02 12:13:24;;;;;;;9.32;2.47;;;25.50;98.80;;;;;;5055577;28;20188;-74
2021/06/02 12:16:05;;;;;;;6.57;1.75;;;25.30;98.30;;;;;;5057535;28;20202;-74
2021/06/02 12:18:43;;;;;;;6.97;1.83;;;25.20;97.10;;;;;;5040747;28;20544;-72
2021/06/02 12:21:21;;;;;;;4.57;2.00;;;25.30;97.90;;;;;;5057057;28;20281;-73
2021/06/02 12:24:02;;;;;;;6.82;2.10;;;25.30;97.90;;;;;;5050726;28;20724;-73
2021/06/02 12:26:41;;;;;;;5.20;1.50;;;25.20;99.80;;;;;;5044163;28;20680;-74
2021/06/02 12:29:11;;;;;;;3.72;1.75;;;25.30;98.30;;;;;;5060802;28;20206;-72
2021/06/02 12:31:52;;;;;;;7.70;2.20;;;25.20;98.40;;;;;;5057950;28;20936;-72
2021/06/02 12:34:31;;;;;;;12.18;2.17;;;25.30;98.30;;;;;;5052442;28;20195;-74
2021/06/02 12:37:02;;;;;;;3.88;2.03;;;25.10;99.00;;;;;;5056594;28;20183;-73
2021/06/02 12:39:36;;;;;;;6.55;2.00;;;25.20;99.20;;;;;;5058128;28;20229;-72
2021/06/02 12:42:06;;;;;;;8.60;2.33;;;25.30;97.00;;;;;;5056004;28;20666;-72
2021/06/02 12:44:37;;;;;;;8.30;2.03;;;25.20;98.40;;;;;;5057130;28;20206;-71
2021/06/02 12:47:10;;;;;;;4.90;1.98;;;25.20;98.50;;;;;;5059379;28;20570;-74
2021/06/02 12:49:43;;;;;;;4.55;1.50;;;25.20;99.50;;;;;;5042277;28;20188;-73
2021/06/02 12:52:10;;;;;;;2.57;1.67;;;25.10;97.00;;;;;;5056714;28;20237;-73
2021/06/02 12:54:42;;;;;;;6.55;2.28;;;25.00;97.50;;;;;;5054800;28;20201;-73
2021/06/02 12:57:09;;;;;;;14.65;2.95;;;24.90;98.40;;;;;;5059300;28;20582;-75
2021/06/02 12:59:38;;;;;;;8.50;2.00;;;25.00;99.60;;;;;;5038417;28;20194;-73
2021/06/02 13:02:10;;;;;;;8.43;2.20;;;24.90;99.90;;;;;;5057648;28;20592;-75
2021/06/02 13:04:37;;;;;;;12.43;2.42;;;25.00;98.30;;;;;;5056405;28;20190;-74
2021/06/02 13:07:04;;;;;;;7.25;2.30;;;25.10;99.90;;;;;;5035783;28;20219;-73
2021/06/02 13:09:31;;;;;;;8.07;2.40;;;25.10;99.90;;;;;;5043488;28;20191;-72
2021/06/02 13:11:57;;;;;;;6.65;1.95;;;25.10;99.90;;;;;;5053021;28;20917;-73
2021/06/02 13:14:38;;;;;;;6.80;2.30;;;25.00;99.90;;;;;;5055936;28;20191;-72
2021/06/02 13:17:06;;;;;;;4.93;2.13;;;24.90;99.90;;;;;;5058496;28;20194;-72
2021/06/02 13:19:43;;;;;;;8.60;2.47;;;24.90;99.90;;;;;;5043215;28;20620;-72
2021/06/02 13:22:24;;;;;;;5.93;2.10;;;24.80;99.90;;;;;;5053230;28;20198;-71
2021/06/02 13:25:02;;;;;;;7.87;2.13;;;24.80;99.90;;;;;;5056509;28;20197;-72
2021/06/02 13:27:29;;;;;;;7.65;2.42;;;24.70;99.90;;;;;;5056993;28;20190;-71
2021/06/02 13:30:10;;;;;;;11.25;2.67;;;24.70;99.90;;;;;;5044963;28;20194;-71
2021/06/02 13:32:37;;;;;;;11.73;2.90;;;24.80;99.90;;;;;;5055050;28;20211;-72
2021/06/02 13:35:19;;;;;;;9.25;2.53;;;24.70;99.90;;;;;;5042437;28;20183;-72
2021/06/02 13:37:46;;;;;;;8.27;2.50;;;24.80;99.90;;;;;;5056800;28;20186;-72
2021/06/02 13:40:23;;;;;;;8.73;2.17;;;24.70;99.90;;;;;;5060590;28;20190;-72
2021/06/02 13:43:18;;;;;;;9.90;2.33;;;24.60;99.90;;;;;;5060533;28;20856;-72
2021/06/02 13:45:56;;;;;;;7.40;2.07;;;24.60;99.90;;;;;;5055195;28;20195;-72
2021/06/02 13:48:32;;;;;;;9.67;2.10;;;24.50;99.90;;;;;;5053126;28;20941;-72